Time;durP1;ratioP1;P1;durP2;ratioP2;P2;SDS_P1;SDS_P2;PMS_P1;PMS_P2;Temp;Humidity;BMP_temperature;BMP_pressure;BME280_temperature;BME280_humidity;BME280_pressure;Samples;Min_cycle;Max_cycle;Signal;HPM_P1;HPM_P2
2022/07/12 00:01:22;;;;;;;2.58;1.20;;;11.80;99.70;;;;;;4706145;30;20042;-83
2022/07/12 00:03:53;;;;;;;3.05;1.27;;;11.80;99.50;;;;;;4706496;30;20277;-80
2022/07/12 00:06:20;;;;;;;4.53;1.67;;;11.80;99.70;;;;;;4694355;30;20075;-81
2022/07/12 00:08:46;;;;;;;2.35;1.30;;;11.80;99.80;;;;;;4696221;30;20068;-85
2022/07/12 00:11:13;;;;;;;3.35;1.27;;;11.80;99.80;;;;;;4713194;30;20042;-80
2022/07/12 00:13:41;;;;;;;3.72;1.42;;;12.50;99.90;;;;;;4709664;30;20739;-80
2022/07/12 00:16:08;;;;;;;3.10;1.33;;;11.60;99.90;;;;;;4709920;30;20068;-81
2022/07/12 00:18:41;;;;;;;3.55;1.80;;;11.60;99.90;;;;;;4683910;30;20056;-81
2022/07/12 00:21:07;;;;;;;5.30;1.63;;;11.60;99.90;;;;;;4713011;30;20029;-81
2022/07/12 00:23:34;;;;;;;2.90;1.20;;;11.50;99.90;;;;;;4711699;30;20074;-80
2022/07/12 00:26:05;;;;;;;4.97;1.70;;;11.60;99.90;;;;;;4713158;30;20045;-83
2022/07/12 00:28:41;;;;;;;4.00;1.38;;;11.60;99.90;;;;;;4712275;30;20046;-81
2022/07/12 00:31:08;;;;;;;4.25;1.73;;;11.50;99.90;;;;;;4711842;30;20104;-80
2022/07/12 00:33:35;;;;;;;3.28;1.23;;;11.50;99.90;;;;;;4715291;30;20033;-81
2022/07/12 00:36:03;;;;;;;7.70;1.55;;;11.50;99.90;;;;;;4713883;30;20033;-81
2022/07/12 00:38:29;;;;;;;2.95;1.20;;;11.40;99.90;;;;;;4708467;30;20040;-84
2022/07/12 00:40:56;;;;;;;4.93;1.20;;;11.40;99.90;;;;;;4707589;30;20038;-81
2022/07/12 00:43:23;;;;;;;6.50;2.00;;;11.40;99.90;;;;;;4711023;30;20123;-81
2022/07/12 00:45:50;;;;;;;2.90;1.50;;;11.40;99.90;;;;;;4712015;30;20097;-82
2022/07/12 00:48:17;;;;;;;2.78;1.10;;;11.30;99.90;;;;;;4695789;30;20046;-81
2022/07/12 00:50:48;;;;;;;3.40;1.27;;;11.30;99.90;;;;;;4710506;30;20045;-81
2022/07/12 00:53:18;;;;;;;2.67;1.38;;;11.30;99.90;;;;;;4708279;30;20046;-81
2022/07/12 00:55:46;;;;;;;3.40;1.05;;;11.30;99.90;;;;;;4707315;30;20085;-81
2022/07/12 00:58:13;;;;;;;3.45;1.73;;;11.20;99.90;;;;;;4711156;30;20036;-81
2022/07/12 01:00:39;;;;;;;5.68;1.20;;;11.30;99.90;;;;;;4711322;30;20191;-80
2022/07/12 01:03:10;;;;;;;5.03;1.70;;;11.30;99.90;;;;;;4708678;30;20044;-81
2022/07/12 01:05:36;;;;;;;3.28;1.30;;;11.20;99.90;;;;;;4693295;30;20049;-84
2022/07/12 01:08:02;;;;;;;3.95;1.65;;;11.20;99.90;;;;;;4706007;30;20057;-81
2022/07/12 01:10:39;;;;;;;5.10;1.42;;;11.20;99.90;;;;;;4709861;30;20077;-80
2022/07/12 01:13:12;;;;;;;4.30;1.85;;;11.20;99.90;;;;;;4697168;30;20072;-81
2022/07/12 01:15:59;;;;;;;5.07;2.15;;;11.10;99.90;;;;;;4710599;30;20117;-81
2022/07/12 01:18:27;;;;;;;2.28;1.13;;;9.30;99.90;;;;;;4712024;30;20335;-80
2022/07/12 01:21:22;;;;;;;3.42;1.52;;;11.10;99.90;;;;;;4712398;30;20473;-80
2022/07/12 01:23:51;;;;;;;2.50;1.38;;;11.00;99.90;;;;;;4714369;30;20038;-80
2022/07/12 01:26:20;;;;;;;3.75;1.38;;;10.90;99.90;;;;;;4711048;30;20552;-79
2022/07/12 01:29:03;;;;;;;2.75;1.20;;;10.90;99.90;;;;;;4670569;30;20061;-81
2022/07/12 01:31:29;;;;;;;2.53;1.50;;;;;;;;;;4695596;30;20046;-81
2022/07/12 01:34:03;;;;;;;2.50;1.27;;;10.80;99.90;;;;;;4713194;30;20045;-80
2022/07/12 01:36:36;;;;;;;2.70;1.02;;;10.80;99.90;;;;;;4709506;30;20319;-84
2022/07/12 01:39:20;;;;;;;2.23;1.13;;;10.70;99.90;;;;;;4712391;30;20552;-81
2022/07/12 01:41:46;;;;;;;2.05;1.08;;;10.70;99.90;;;;;;4713712;30;20045;-82
2022/07/12 01:44:12;;;;;;;3.70;1.75;;;10.60;99.90;;;;;;4711923;30;20335;-80
2022/07/12 01:46:41;;;;;;;3.42;1.27;;;;;;;;;;4713574;30;20037;-81
2022/07/12 01:49:08;;;;;;;3.47;1.40;;;10.60;99.90;;;;;;4712700;30;20346;-80
2022/07/12 01:51:37;;;;;;;3.33;1.67;;;10.60;99.90;;;;;;4713066;30;20047;-80
2022/07/12 01:54:14;;;;;;;2.45;1.02;;;10.50;99.90;;;;;;4693821;30;20028;-80
2022/07/12 01:56:41;;;;;;;4.22;1.42;;;10.50;99.90;;;;;;4712052;30;20037;-80
2022/07/12 01:59:08;;;;;;;1.10;0.90;;;10.40;99.90;;;;;;4712502;30;20081;-80
2022/07/12 02:01:39;;;;;;;2.75;1.25;;;10.40;99.90;;;;;;4712171;30;20054;-81
2022/07/12 02:04:05;;;;;;;2.88;1.33;;;10.40;99.90;;;;;;4710792;30;20060;-81
2022/07/12 02:06:35;;;;;;;2.90;1.25;;;10.40;99.90;;;;;;4709878;30;20057;-80
2022/07/12 02:09:01;;;;;;;3.55;1.33;;;;;;;;;;4709037;30;20053;-80
2022/07/12 02:11:30;;;;;;;1.40;0.95;;;10.40;99.90;;;;;;4708831;30;20049;-81
2022/07/12 02:13:58;;;;;;;5.38;0.95;;;10.40;99.90;;;;;;4695127;30;20034;-80
2022/07/12 02:16:26;;;;;;;3.78;2.22;;;10.30;99.90;;;;;;4707873;30;20040;-80
2022/07/12 02:18:52;;;;;;;3.17;1.38;;;10.40;99.90;;;;;;4693685;30;20397;-81
2022/07/12 02:21:18;;;;;;;2.72;1.15;;;10.30;99.90;;;;;;4712591;30;20154;-81
2022/07/12 02:24:10;;;;;;;2.88;1.33;;;7.70;99.90;;;;;;4713152;30;20038;-81
2022/07/12 02:26:57;;;;;;;2.47;1.35;;;10.30;99.90;;;;;;4714294;30;20042;-81
2022/07/12 02:29:28;;;;;;;3.30;1.27;;;10.20;99.90;;;;;;4710376;30;20117;-81
2022/07/12 02:31:54;;;;;;;2.90;1.20;;;10.20;99.90;;;;;;4710117;30;20037;-81
2022/07/12 02:34:23;;;;;;;1.65;0.93;;;10.10;99.90;;;;;;4708160;30;20061;-82
2022/07/12 02:36:49;;;;;;;2.90;0.85;;;10.20;99.90;;;;;;4703270;30;20061;-82
2022/07/12 02:39:17;;;;;;;3.90;0.93;;;10.20;99.90;;;;;;4688079;30;20057;-80
2022/07/12 02:41:43;;;;;;;2.45;1.40;;;10.10;99.90;;;;;;4702780;30;20042;-82
2022/07/12 02:44:17;;;;;;;2.70;1.27;;;10.10;99.90;;;;;;4708385;30;20040;-81
2022/07/12 02:46:53;;;;;;;2.03;1.23;;;10.00;99.90;;;;;;4710146;30;20077;-79
2022/07/12 02:49:39;;;;;;;3.05;1.55;;;10.10;99.90;;;;;;4713217;30;20041;-80
2022/07/12 02:52:09;;;;;;;2.17;1.15;;;10.00;99.90;;;;;;4712761;30;20056;-79
2022/07/12 02:54:40;;;;;;;1.65;1.00;;;10.20;99.90;;;;;;4711603;30;20037;-80
2022/07/12 02:57:08;;;;;;;4.15;1.80;;;9.90;99.90;;;;;;4713738;30;20051;-80
2022/07/12 02:59:34;;;;;;;3.67;1.50;;;9.90;99.90;;;;;;4714124;30;20092;-81
2022/07/12 03:02:03;;;;;;;2.90;1.52;;;9.90;99.90;;;;;;4715270;30;20105;-81
2022/07/12 03:04:29;;;;;;;5.50;1.10;;;10.40;99.90;;;;;;4713920;30;20044;-79
2022/07/12 03:07:13;;;;;;;3.88;1.50;;;10.00;99.90;;;;;;4712079;30;20042;-81
2022/07/12 03:09:42;;;;;;;1.77;0.95;;;9.90;99.90;;;;;;4711931;30;20061;-80
2022/07/12 03:12:09;;;;;;;4.60;1.20;;;;;;;;;;4709470;30;20056;-80
2022/07/12 03:14:37;;;;;;;5.90;1.75;;;9.80;99.90;;;;;;4709589;30;20107;-81
2022/07/12 03:17:04;;;;;;;4.32;1.58;;;9.80;99.90;;;;;;4709820;30;20049;-81
2022/07/12 03:19:31;;;;;;;2.13;1.35;;;9.70;99.90;;;;;;4710295;30;20077;-81
2022/07/12 03:21:57;;;;;;;2.55;1.10;;;;;;;;;;4710093;30;20068;-80
2022/07/12 03:24:28;;;;;;;4.68;1.13;;;;;;;;;;4680252;30;20064;-81
2022/07/12 03:26:56;;;;;;;5.50;1.60;;;9.80;99.90;;;;;;4709569;30;20046;-79
2022/07/12 03:29:23;;;;;;;2.55;1.20;;;;;;;;;;4710752;30;20053;-81
2022/07/12 03:31:51;;;;;;;2.08;1.10;;;9.80;99.90;;;;;;4711706;30;20057;-80
2022/07/12 03:34:18;;;;;;;4.13;1.23;;;9.80;99.90;;;;;;4710908;30;20053;-80
2022/07/12 03:36:44;;;;;;;3.45;1.48;;;;;;;;;;4712273;30;20046;-80
2022/07/12 03:39:19;;;;;;;2.80;1.33;;;9.80;99.90;;;;;;4711364;30;20046;-80
2022/07/12 03:41:45;;;;;;;0.98;0.65;;;;;;;;;;4710090;30;20124;-80
2022/07/12 03:44:15;;;;;;;2.53;1.33;;;9.90;99.90;;;;;;4710179;30;20064;-81
2022/07/12 03:46:47;;;;;;;2.00;1.05;;;9.80;99.90;;;;;;4713319;30;20046;-81
2022/07/12 03:49:19;;;;;;;1.87;1.10;;;9.90;99.90;;;;;;4710372;30;20069;-79
2022/07/12 03:51:46;;;;;;;4.95;2.03;;;;;;;;;;4715460;30;20057;-80
2022/07/12 03:54:56;;;;;;;3.90;1.92;;;9.90;99.90;;;;;;4715023;30;20042;-80
2022/07/12 03:57:28;;;;;;;3.90;1.52;;;10.70;99.90;;;;;;4715311;30;20107;-80
2022/07/12 03:59:56;;;;;;;4.72;1.83;;;9.90;99.90;;;;;;4715282;30;20490;-81
2022/07/12 04:02:29;;;;;;;4.68;0.98;;;9.80;99.90;;;;;;4714907;30;20058;-79
2022/07/12 04:05:00;;;;;;;2.55;1.20;;;9.90;99.90;;;;;;4710977;30;20046;-80
2022/07/12 04:07:29;;;;;;;2.95;1.30;;;9.90;99.90;;;;;;4695082;30;20038;-81
2022/07/12 04:09:59;;;;;;;2.65;1.40;;;10.00;99.90;;;;;;4712472;30;20155;-81
2022/07/12 04:12:35;;;;;;;3.17;1.45;;;10.30;99.90;;;;;;4717420;30;20050;-82
2022/07/12 04:15:10;;;;;;;5.47;1.63;;;10.10;99.90;;;;;;4715964;30;20053;-80
2022/07/12 04:17:37;;;;;;;3.72;1.52;;;10.20;99.90;;;;;;4687523;30;20053;-80
2022/07/12 04:20:33;;;;;;;2.40;1.25;;;10.30;99.90;;;;;;4720426;25;20065;-81
2022/07/12 04:23:03;;;;;;;2.75;1.20;;;10.30;99.90;;;;;;4715440;30;20080;-80
2022/07/12 04:25:51;;;;;;;5.30;1.77;;;12.80;99.90;;;;;;4717143;30;20042;-80
2022/07/12 04:28:23;;;;;;;2.30;1.27;;;10.60;99.90;;;;;;4715957;30;20029;-79
2022/07/12 04:30:51;;;;;;;3.40;1.38;;;10.50;99.90;;;;;;4702831;30;20018;-80
2022/07/12 04:33:40;;;;;;;3.85;1.58;;;10.70;99.90;;;;;;4718552;30;20049;-80
2022/07/12 04:36:12;;;;;;;8.77;3.25;;;10.70;99.90;;;;;;4719636;30;20041;-79
2022/07/12 04:38:42;;;;;;;11.05;4.63;;;10.80;99.90;;;;;;4718098;30;20041;-80
2022/07/12 04:41:09;;;;;;;13.77;6.05;;;10.90;99.90;;;;;;4717685;30;20025;-80
2022/07/12 04:43:37;;;;;;;8.82;3.83;;;10.80;99.90;;;;;;4717223;30;20582;-82
2022/07/12 04:46:14;;;;;;;7.47;3.65;;;11.00;99.90;;;;;;4716979;30;20034;-80
2022/07/12 04:48:40;;;;;;;6.75;3.63;;;11.10;99.90;;;;;;4698882;30;20041;-80
2022/07/12 04:51:07;;;;;;;8.45;3.17;;;11.20;99.90;;;;;;4716119;30;20041;-79
2022/07/12 04:53:39;;;;;;;4.88;1.45;;;11.00;99.90;;;;;;4697186;30;20038;-82
2022/07/12 04:56:08;;;;;;;5.88;2.15;;;11.30;99.90;;;;;;4691631;30;20037;-81
2022/07/12 04:58:34;;;;;;;5.78;1.77;;;11.30;99.90;;;;;;4696356;30;20041;-81
2022/07/12 05:01:07;;;;;;;2.97;1.67;;;11.50;99.90;;;;;;4691448;30;20060;-82
2022/07/12 05:04:00;;;;;;;5.15;1.95;;;12.10;99.90;;;;;;4708209;30;20089;-83
2022/07/12 05:06:29;;;;;;;12.45;4.07;;;;;;;;;;4706621;30;20072;-81
2022/07/12 05:09:01;;;;;;;56.03;17.40;;;11.80;99.90;;;;;;4708674;30;20065;-82
2022/07/12 05:11:27;;;;;;;64.45;22.27;;;12.00;99.90;;;;;;4684045;30;20038;-83
2022/07/12 05:13:53;;;;;;;51.50;18.48;;;;;;;;;;4679183;30;20041;-83
2022/07/12 05:16:20;;;;;;;25.58;9.63;;;12.20;99.70;;;;;;4673764;30;20087;-84
2022/07/12 05:18:46;;;;;;;27.98;11.82;;;12.20;99.60;;;;;;4687695;30;20042;-82
2022/07/12 05:21:11;;;;;;;18.33;8.30;;;12.40;99.70;;;;;;4687997;30;20346;-85
2022/07/12 05:23:37;;;;;;;10.50;5.22;;;12.40;99.50;;;;;;4671778;30;20449;-84
2022/07/12 05:26:03;;;;;;;10.55;4.07;;;12.50;99.20;;;;;;4687560;30;20065;-83
2022/07/12 05:28:32;;;;;;;9.57;3.70;;;12.60;99.30;;;;;;4687411;30;20397;-83
2022/07/12 05:30:59;;;;;;;6.25;2.60;;;12.70;98.90;;;;;;4687385;30;20235;-84
2022/07/12 05:33:24;;;;;;;9.15;4.07;;;12.70;98.80;;;;;;4671373;30;20045;-85
2022/07/12 05:35:51;;;;;;;29.73;12.07;;;;;;;;;;4687208;30;20041;-82
2022/07/12 05:38:17;;;;;;;18.95;6.18;;;12.60;98.60;;;;;;4671452;30;20140;-82
2022/07/12 05:40:42;;;;;;;14.88;4.40;;;12.70;98.90;;;;;;4686845;30;20240;-84
2022/07/12 05:43:08;;;;;;;10.80;3.97;;;14.20;98.80;;;;;;4687046;30;20046;-82
2022/07/12 05:45:34;;;;;;;7.43;3.53;;;12.90;98.40;;;;;;4671283;30;20104;-83
2022/07/12 05:48:00;;;;;;;7.55;3.13;;;13.00;98.50;;;;;;4687247;30;20041;-85
2022/07/12 05:50:25;;;;;;;10.63;4.22;;;13.10;98.30;;;;;;4687184;30;20618;-82
2022/07/12 05:55:36;;;;;;;5.90;2.50;;;13.30;97.60;;;;;;4686511;30;20095;-83
2022/07/12 05:58:03;;;;;;;6.63;2.65;;;13.30;97.90;;;;;;4686347;30;20065;-85
2022/07/12 06:00:29;;;;;;;6.20;2.47;;;13.40;97.70;;;;;;4686394;30;20045;-87
2022/07/12 06:02:54;;;;;;;5.93;2.25;;;13.50;97.60;;;;;;4686317;30;20401;-87
2022/07/12 06:05:20;;;;;;;4.95;2.38;;;13.60;97.20;;;;;;4670544;30;20332;-84
2022/07/12 06:07:46;;;;;;;5.00;2.15;;;13.80;97.10;;;;;;4685913;30;20049;-84
2022/07/12 06:10:11;;;;;;;7.07;2.60;;;13.90;97.20;;;;;;4685610;30;20117;-84
2022/07/12 06:12:38;;;;;;;5.40;2.15;;;14.10;96.80;;;;;;4685714;30;20038;-85
2022/07/12 06:15:05;;;;;;;9.57;2.85;;;14.20;96.20;;;;;;4669742;30;20092;-83
2022/07/12 06:17:33;;;;;;;6.93;3.05;;;14.40;96.00;;;;;;4669791;30;20045;-84
2022/07/12 06:19:58;;;;;;;9.30;3.25;;;12.70;95.20;;;;;;4685401;30;20521;-85
2022/07/12 06:22:24;;;;;;;6.70;2.78;;;14.50;95.30;;;;;;4685569;30;20268;-83
2022/07/12 06:24:53;;;;;;;6.00;2.45;;;14.60;95.40;;;;;;4669981;30;20045;-84
2022/07/12 06:27:19;;;;;;;7.63;2.47;;;14.70;96.00;;;;;;4669511;30;20774;-82
2022/07/12 06:29:47;;;;;;;4.82;2.47;;;14.80;95.50;;;;;;4685385;30;20121;-87
2022/07/12 06:32:17;;;;;;;9.15;2.40;;;14.90;95.50;;;;;;4669845;30;20320;-86
2022/07/12 06:34:44;;;;;;;10.15;2.80;;;14.90;95.30;;;;;;4669620;30;20274;-84
2022/07/12 06:37:09;;;;;;;5.38;2.63;;;14.90;95.50;;;;;;4669542;30;20127;-83
2022/07/12 06:39:36;;;;;;;6.22;2.72;;;15.00;95.20;;;;;;4669718;30;20565;-85
2022/07/12 06:42:05;;;;;;;5.35;2.15;;;15.10;95.50;;;;;;4669496;30;20127;-83
2022/07/12 06:44:34;;;;;;;4.72;2.50;;;15.10;95.30;;;;;;4685539;30;20437;-84
2022/07/12 06:47:01;;;;;;;7.68;2.85;;;18.10;96.40;;;;;;4685397;30;20151;-85
2022/07/12 06:49:26;;;;;;;5.00;2.10;;;15.30;95.20;;;;;;4685735;30;20063;-82
2022/07/12 06:51:52;;;;;;;4.95;2.08;;;15.30;95.00;;;;;;4685289;30;20509;-83
2022/07/12 06:54:18;;;;;;;4.38;1.92;;;15.60;95.00;;;;;;4685405;30;20160;-84
2022/07/12 06:56:44;;;;;;;6.25;2.55;;;15.80;94.70;;;;;;4669464;30;20121;-82
2022/07/12 06:59:13;;;;;;;4.75;2.15;;;15.80;94.10;;;;;;4684993;30;20132;-86
2022/07/12 07:01:39;;;;;;;6.68;3.25;;;15.80;94.10;;;;;;4685184;30;20522;-84
2022/07/12 07:04:05;;;;;;;5.32;2.60;;;15.70;94.40;;;;;;4669344;30;20046;-82
2022/07/12 07:06:31;;;;;;;5.15;2.17;;;15.80;94.30;;;;;;4685184;30;20406;-85
2022/07/12 07:08:57;;;;;;;5.00;2.30;;;15.90;94.20;;;;;;4685639;30;20192;-84
2022/07/12 07:11:23;;;;;;;7.45;2.25;;;16.20;94.00;;;;;;4670691;30;20067;-88
2022/07/12 07:13:50;;;;;;;5.57;2.20;;;16.50;93.50;;;;;;4685581;30;20451;-84
2022/07/12 07:16:16;;;;;;;7.90;2.80;;;;;;;;;;4685372;30;20069;-82
2022/07/12 07:18:42;;;;;;;4.75;1.88;;;16.80;92.80;;;;;;4685742;30;20041;-87
2022/07/12 07:21:08;;;;;;;5.68;2.08;;;16.80;92.90;;;;;;4685648;30;20041;-83
2022/07/12 07:23:34;;;;;;;4.95;1.92;;;16.90;92.30;;;;;;4686094;30;20405;-86
2022/07/12 07:25:59;;;;;;;5.95;2.22;;;17.10;92.20;;;;;;4669601;30;20132;-85
2022/07/12 07:28:25;;;;;;;5.72;1.92;;;17.10;91.20;;;;;;4684776;30;20053;-83
2022/07/12 07:30:53;;;;;;;5.97;2.20;;;17.30;91.20;;;;;;4684596;30;20048;-83
2022/07/12 07:33:24;;;;;;;7.50;2.30;;;17.40;90.60;;;;;;4669260;30;20655;-85
2022/07/12 07:35:53;;;;;;;6.47;2.30;;;17.50;90.70;;;;;;4663920;30;20045;-84
2022/07/12 07:38:19;;;;;;;3.15;1.88;;;17.70;90.40;;;;;;4664300;30;20052;-83
2022/07/12 07:40:45;;;;;;;6.22;2.10;;;17.80;90.20;;;;;;4664442;30;20268;-83
2022/07/12 07:43:11;;;;;;;6.50;2.25;;;18.00;90.40;;;;;;4666715;30;20049;-82
2022/07/12 07:45:37;;;;;;;3.78;1.73;;;18.10;90.30;;;;;;4667741;30;20046;-86
2022/07/12 07:48:06;;;;;;;7.85;3.40;;;18.30;90.10;;;;;;4667874;30;20061;-85
2022/07/12 07:50:32;;;;;;;6.07;2.97;;;18.40;88.90;;;;;;4667370;30;20050;-84
2022/07/12 07:52:58;;;;;;;6.80;2.33;;;18.20;89.80;;;;;;4668028;30;20034;-83
2022/07/12 07:55:23;;;;;;;5.88;2.63;;;18.40;89.40;;;;;;4653291;30;20596;-82
2022/07/12 07:57:49;;;;;;;3.95;2.00;;;18.60;89.30;;;;;;4667679;30;20576;-83
2022/07/12 08:00:18;;;;;;;4.50;2.00;;;18.50;88.50;;;;;;4667229;30;20289;-83
2022/07/12 08:02:46;;;;;;;3.65;1.80;;;18.60;88.20;;;;;;4667464;30;20038;-83
2022/07/12 08:05:12;;;;;;;6.45;2.38;;;18.80;87.60;;;;;;4667378;30;20053;-84
2022/07/12 08:07:41;;;;;;;5.07;2.17;;;19.00;87.10;;;;;;4671447;30;20033;-86
2022/07/12 08:10:07;;;;;;;4.80;2.20;;;19.30;86.30;;;;;;4687428;30;20042;-84
2022/07/12 08:12:34;;;;;;;4.90;2.17;;;19.50;84.50;;;;;;4687983;30;20045;-84
2022/07/12 08:15:03;;;;;;;7.93;2.35;;;19.40;84.40;;;;;;4687459;30;20103;-85
2022/07/12 08:17:31;;;;;;;4.88;2.00;;;19.20;85.10;;;;;;4687530;30;20532;-82
2022/07/12 08:19:58;;;;;;;6.65;2.60;;;19.20;84.20;;;;;;4687322;30;20097;-83
2022/07/12 08:22:24;;;;;;;5.22;2.10;;;19.10;84.90;;;;;;4687697;30;20069;-82
2022/07/12 08:24:50;;;;;;;8.38;2.65;;;19.30;85.40;;;;;;4687264;30;20049;-84
2022/07/12 08:27:16;;;;;;;5.35;2.08;;;19.60;84.50;;;;;;4671603;30;20061;-85
2022/07/12 08:29:42;;;;;;;6.82;2.38;;;19.70;83.90;;;;;;4687412;30;20541;-83
2022/07/12 08:32:08;;;;;;;8.32;2.35;;;19.70;83.60;;;;;;4687199;30;20367;-84
2022/07/12 08:34:34;;;;;;;7.30;2.40;;;19.90;83.60;;;;;;4687178;30;20089;-84
2022/07/12 08:37:00;;;;;;;7.97;2.78;;;20.10;82.70;;;;;;4687290;30;20042;-85
2022/07/12 08:39:28;;;;;;;6.05;2.58;;;20.30;82.50;;;;;;4687097;30;20090;-84
2022/07/12 08:41:54;;;;;;;5.20;2.22;;;20.60;81.10;;;;;;4671484;30;20266;-83
2022/07/12 08:44:20;;;;;;;6.70;2.10;;;20.90;79.50;;;;;;4671136;30;20034;-84
2022/07/12 08:46:47;;;;;;;4.50;1.90;;;21.10;78.90;;;;;;4671113;30;20515;-83
2022/07/12 08:49:13;;;;;;;7.32;2.95;;;21.10;78.60;;;;;;4686365;30;20113;-84
2022/07/12 08:51:38;;;;;;;7.57;2.42;;;21.10;78.80;;;;;;4670975;30;20153;-84
2022/07/12 08:54:07;;;;;;;8.00;2.80;;;20.90;79.70;;;;;;4686639;30;20041;-85
2022/07/12 08:56:41;;;;;;;6.63;3.00;;;20.70;78.10;;;;;;4686558;30;20478;-84
2022/07/12 08:59:14;;;;;;;7.13;2.13;;;20.30;79.40;;;;;;4686759;30;20117;-84
2022/07/12 09:01:51;;;;;;;6.22;2.10;;;20.10;79.90;;;;;;4686637;30;20041;-83
2022/07/12 09:04:20;;;;;;;8.05;2.80;;;20.40;79.00;;;;;;4671037;30;20115;-85
2022/07/12 09:06:46;;;;;;;7.53;2.13;;;20.80;79.20;;;;;;4686982;30;20042;-84
2022/07/12 09:09:44;;;;;;;7.15;2.00;;;20.80;77.30;;;;;;4686895;30;20030;-86
2022/07/12 09:12:22;;;;;;;10.07;2.58;;;20.90;76.10;;;;;;4618702;30;20384;-83
2022/07/12 09:14:52;;;;;;;6.85;1.92;;;21.00;75.90;;;;;;4632368;30;20079;-82
2022/07/12 09:17:21;;;;;;;8.60;2.03;;;21.00;75.60;;;;;;4632430;30;20035;-82
2022/07/12 09:19:57;;;;;;;7.15;2.30;;;21.00;76.20;;;;;;4632319;30;20495;-83
2022/07/12 09:22:24;;;;;;;8.73;2.95;;;21.10;75.00;;;;;;4618007;30;20043;-83
2022/07/12 09:24:50;;;;;;;3.42;1.45;;;21.10;75.30;;;;;;4632058;30;20054;-85
2022/07/12 09:27:16;;;;;;;4.28;1.63;;;20.90;75.60;;;;;;4632155;30;20199;-83
2022/07/12 09:29:51;;;;;;;4.85;1.92;;;21.50;75.10;;;;;;4618020;30;20160;-83
2022/07/12 09:37:48;;;;;;;4.97;1.88;;;22.00;70.50;;;;;;4632225;30;20105;-83
2022/07/12 09:40:14;;;;;;;4.15;1.42;;;22.40;69.30;;;;;;4631918;30;20051;-83
2022/07/12 09:42:40;;;;;;;4.15;1.75;;;22.80;69.40;;;;;;4631590;30;20043;-84
2022/07/12 09:45:10;;;;;;;8.45;1.55;;;23.10;68.10;;;;;;4632104;30;20350;-82
2022/07/12 09:47:44;;;;;;;2.20;1.23;;;23.00;67.20;;;;;;4654645;30;20041;-83
2022/07/12 09:50:10;;;;;;;3.47;1.70;;;23.10;67.40;;;;;;4670440;30;20166;-83
2022/07/12 09:52:41;;;;;;;3.38;1.45;;;23.10;66.90;;;;;;4670575;30;20390;-85
2022/07/12 09:55:10;;;;;;;3.33;1.63;;;23.40;66.50;;;;;;4670180;30;20041;-83
2022/07/12 09:57:46;;;;;;;3.00;1.17;;;23.30;66.10;;;;;;4686068;30;20695;-84
2022/07/12 10:00:12;;;;;;;2.50;1.23;;;23.20;66.10;;;;;;4685823;30;20057;-83
2022/07/12 10:02:45;;;;;;;4.72;1.77;;;23.50;64.70;;;;;;4670305;30;20069;-83
2022/07/12 10:05:18;;;;;;;4.60;1.60;;;21.70;64.20;;;;;;4670048;30;20065;-85
2022/07/12 10:07:45;;;;;;;5.60;1.50;;;23.40;62.50;;;;;;4686249;30;20038;-85
2022/07/12 10:10:17;;;;;;;6.32;1.70;;;23.30;63.10;;;;;;4685712;30;20041;-84
2022/07/12 10:12:46;;;;;;;3.00;1.20;;;23.70;62.90;;;;;;4670081;30;20034;-84
2022/07/12 10:15:22;;;;;;;4.50;1.30;;;23.80;62.50;;;;;;4669731;30;20465;-84
2022/07/12 10:17:58;;;;;;;5.70;1.23;;;23.80;63.70;;;;;;4670200;30;20034;-83
2022/07/12 10:20:26;;;;;;;5.68;1.60;;;23.50;62.90;;;;;;4685542;30;20111;-83
2022/07/12 10:22:53;;;;;;;4.45;1.90;;;25.90;64.50;;;;;;4670439;30;20042;-84
2022/07/12 10:25:25;;;;;;;4.53;1.23;;;23.60;62.40;;;;;;4670133;30;20268;-83
2022/07/12 10:27:51;;;;;;;2.83;1.30;;;23.40;61.30;;;;;;4670637;30;20116;-82
2022/07/12 10:30:20;;;;;;;1.85;1.10;;;23.40;60.80;;;;;;4685902;30;20113;-83
2022/07/12 10:32:48;;;;;;;6.15;1.40;;;23.90;58.30;;;;;;4670135;30;20457;-84
2022/07/12 10:35:25;;;;;;;5.15;1.20;;;24.20;57.30;;;;;;4670137;30;20103;-84
2022/07/12 10:38:09;;;;;;;3.22;1.15;;;24.20;57.70;;;;;;4669774;30;20052;-84
2022/07/12 10:40:35;;;;;;;1.98;1.27;;;24.50;56.60;;;;;;4669545;30;20396;-84
2022/07/12 10:43:01;;;;;;;3.58;0.88;;;24.70;56.50;;;;;;4685513;30;20080;-82
2022/07/12 10:45:32;;;;;;;3.38;1.27;;;25.00;55.60;;;;;;4670536;30;20050;-82
2022/07/12 10:48:27;;;;;;;4.65;1.52;;;25.30;55.00;;;;;;4686211;30;20285;-83
2022/07/12 10:51:00;;;;;;;2.13;1.17;;;25.20;54.90;;;;;;4684951;30;20046;-85
2022/07/12 10:53:33;;;;;;;2.33;1.20;;;24.90;55.10;;;;;;4685235;30;20033;-82
2022/07/12 10:56:14;;;;;;;2.65;1.02;;;24.80;55.20;;;;;;4685278;30;20033;-82
2022/07/12 10:58:44;;;;;;;3.90;1.33;;;24.50;54.70;;;;;;4685167;30;20095;-82
2022/07/12 11:01:13;;;;;;;2.13;1.10;;;24.20;55.30;;;;;;4685250;30;20094;-83
2022/07/12 11:03:47;;;;;;;3.45;1.30;;;24.10;56.10;;;;;;4685198;30;20072;-83
2022/07/12 11:06:14;;;;;;;2.05;1.08;;;23.90;57.60;;;;;;4685236;30;20684;-83
2022/07/12 11:08:55;;;;;;;2.63;1.00;;;23.90;56.70;;;;;;4685155;30;20526;-83
2022/07/12 11:11:22;;;;;;;1.98;1.10;;;26.60;57.50;;;;;;4669152;30;20130;-84
2022/07/12 11:13:48;;;;;;;3.13;1.15;;;24.80;56.60;;;;;;4684702;30;20239;-84
2022/07/12 11:16:14;;;;;;;3.30;1.13;;;25.50;55.10;;;;;;4684905;30;20041;-85
2022/07/12 11:18:40;;;;;;;2.08;1.00;;;25.80;53.30;;;;;;4684488;30;20038;-84
2022/07/12 11:21:06;;;;;;;4.68;1.35;;;25.90;53.00;;;;;;4669323;30;20397;-84
2022/07/12 11:23:32;;;;;;;1.90;1.20;;;25.70;53.20;;;;;;4669415;30;20331;-85
2022/07/12 11:26:03;;;;;;;1.58;1.15;;;26.00;53.90;;;;;;4685534;30;20465;-83
2022/07/12 11:28:30;;;;;;;2.40;1.08;;;26.00;53.00;;;;;;4669500;30;20041;-83
2022/07/12 11:31:09;;;;;;;5.05;1.10;;;25.90;52.80;;;;;;4685515;30;20038;-85
2022/07/12 11:33:41;;;;;;;2.13;1.00;;;25.50;53.10;;;;;;4685595;30;20072;-83
2022/07/12 11:36:10;;;;;;;1.42;1.10;;;25.40;53.20;;;;;;4669909;30;20030;-83
2022/07/12 11:38:46;;;;;;;3.33;1.10;;;25.10;53.50;;;;;;4685355;30;20250;-86
2022/07/12 11:41:19;;;;;;;4.95;2.30;;;24.10;53.10;;;;;;4685099;30;20054;-85
2022/07/12 11:43:45;;;;;;;2.75;1.20;;;25.40;54.70;;;;;;4669700;30;20038;-85
2022/07/12 11:46:12;;;;;;;2.00;1.33;;;25.10;53.40;;;;;;4669443;30;20045;-84
2022/07/12 11:48:41;;;;;;;2.00;1.23;;;25.00;53.50;;;;;;4685015;30;20366;-84
2022/07/12 11:51:15;;;;;;;3.22;0.98;;;25.00;54.30;;;;;;4685243;30;20533;-83
2022/07/12 11:53:41;;;;;;;2.88;1.25;;;25.20;54.50;;;;;;4684993;30;20049;-84
2022/07/12 11:56:12;;;;;;;2.25;1.52;;;25.00;54.10;;;;;;4684500;30;20308;-83
2022/07/12 11:58:57;;;;;;;3.10;1.13;;;25.40;54.60;;;;;;4668974;30;20060;-84
2022/07/12 12:01:25;;;;;;;3.75;1.90;;;25.90;53.70;;;;;;4684632;30;20442;-83
2022/07/12 12:04:00;;;;;;;1.92;1.10;;;26.20;53.50;;;;;;4684748;30;20064;-84
2022/07/12 12:06:30;;;;;;;1.42;1.17;;;27.50;52.10;;;;;;4684876;30;20047;-85
2022/07/12 12:09:05;;;;;;;3.50;1.33;;;27.80;49.90;;;;;;4684446;30;20026;-83
2022/07/12 12:11:31;;;;;;;3.25;1.08;;;28.40;49.20;;;;;;4684457;30;20125;-84
2022/07/12 12:13:57;;;;;;;2.38;1.40;;;29.60;49.10;;;;;;4684721;30;20317;-84
2022/07/12 12:16:31;;;;;;;3.03;1.40;;;30.80;47.80;;;;;;4684281;30;20046;-85
2022/07/12 12:19:01;;;;;;;2.75;1.13;;;30.70;45.70;;;;;;4684189;30;20508;-81
2022/07/12 12:21:27;;;;;;;6.88;1.60;;;30.90;44.70;;;;;;4684434;30;20481;-84
2022/07/12 12:24:08;;;;;;;2.55;1.20;;;30.90;44.40;;;;;;4668891;30;20721;-83
2022/07/12 12:26:34;;;;;;;3.75;1.23;;;30.30;44.50;;;;;;4684222;30;20045;-82
2022/07/12 12:29:02;;;;;;;1.70;1.10;;;29.50;44.80;;;;;;4685809;30;20037;-84
2022/07/12 12:31:31;;;;;;;2.53;1.08;;;28.70;45.90;;;;;;4687029;30;20058;-85
2022/07/12 12:34:00;;;;;;;3.42;1.45;;;29.10;49.40;;;;;;4686987;30;20037;-85
2022/07/12 12:36:36;;;;;;;3.13;1.25;;;29.70;47.70;;;;;;4687613;30;20199;-83
2022/07/12 12:39:03;;;;;;;2.85;1.15;;;28.20;47.50;;;;;;4671701;30;20140;-83
2022/07/12 12:41:41;;;;;;;1.90;1.00;;;28.10;46.50;;;;;;4687084;30;20041;-81
2022/07/12 12:44:12;;;;;;;3.28;1.10;;;27.90;46.20;;;;;;4687622;30;20034;-84
2022/07/12 12:46:45;;;;;;;3.20;1.40;;;27.10;47.50;;;;;;4687386;30;20076;-82
2022/07/12 12:49:12;;;;;;;2.65;1.30;;;;;;;;;;4671532;30;20042;-85
2022/07/12 12:51:52;;;;;;;2.17;1.13;;;25.70;49.10;;;;;;4671814;30;20076;-84
2022/07/12 12:54:51;;;;;;;2.42;1.10;;;25.20;50.80;;;;;;4671477;30;20050;-84
2022/07/12 12:57:26;;;;;;;4.05;1.38;;;;;;;;;;4632850;30;20047;-84
2022/07/12 12:59:53;;;;;;;1.25;0.90;;;25.30;51.10;;;;;;4618307;30;20047;-83
2022/07/12 13:02:20;;;;;;;2.13;1.02;;;25.20;51.20;;;;;;4632963;30;20058;-84
2022/07/12 13:04:46;;;;;;;1.75;1.08;;;25.10;52.30;;;;;;4618814;30;20270;-82
2022/07/12 13:07:11;;;;;;;1.63;0.80;;;24.90;52.00;;;;;;4634250;30;20508;-83
2022/07/12 13:09:37;;;;;;;3.00;1.10;;;;;;;;;;4633042;30;20057;-82
2022/07/12 13:12:04;;;;;;;1.90;1.08;;;24.70;52.10;;;;;;4632933;30;20122;-82
2022/07/12 13:14:30;;;;;;;1.63;1.10;;;24.70;53.00;;;;;;4618478;30;20039;-83